»·PEaware :: UAL448 KBOS-KDEN

UAL448 :: KBOS-KDEN

FLIGHT INFORMATION

Flight Status: Arrived
Operator:
United Airlines
More flights by this operator :: More flights under this callsign
Pilot: Jac C. (16067)
Aircraft: BOEING 757-200
(B752)
More flights by this aircraft type
Origin: KBOS Logan Intl
United States
Destination: KDEN Denver Intl
United States
More flights between these airports :: More routes between these airports
Route: +HYLND5 HYLND PAYGE Q822 GONZZ BUF YARRK FNT MELRR DABJU BAE MCW J148 ONL ANCHR4
File this flight plan on PilotEdge
Remarks:
Altitude:
(Current/Filed)
34,000ft
Speed:
(Current/Filed)
471kts
Departed: 10-Feb-18 06:44 PM
Arrived: 10-Feb-18 08:56 PM
Distance/Time
Traveled:
1520nm/2:11
Distance/Time
To Go:
Arrived

Flight Plot

Page will automatically refresh every two minutes.

Flight plan parsing failed; only flown route is shown


Map Options




Map Legend


Flown Route
Filed Route
Departure Airport
Arrival Airport
Navaid (VOR, NDB)
Fix

Horizontal Profiles

Position Reports

Time Latitude Longitude Heading Altitude Ground
Speed
10-Feb-18 18:50 43.130481 -89.328239 264 34171ft 358kts
10-Feb-18 18:51 43.131557 -89.464092 264 34168ft 358kts
10-Feb-18 18:52 43.132476 -89.600694 264 34165ft 359kts
10-Feb-18 18:53 43.133223 -89.736312 263 34184ft 358kts
10-Feb-18 18:54 43.133816 -89.872554 263 34207ft 358kts
10-Feb-18 18:55 43.134248 -90.008635 263 34205ft 358kts
10-Feb-18 18:56 43.134519 -90.144893 263 34202ft 359kts
10-Feb-18 18:57 43.134628 -90.281051 263 34199ft 359kts
10-Feb-18 18:58 43.134576 -90.417452 263 34196ft 359kts
10-Feb-18 18:59 43.134361 -90.553976 263 34193ft 359kts
10-Feb-18 19:00 43.133979 -90.690076 263 34212ft 359kts
10-Feb-18 19:01 43.133427 -90.825597 265 34211ft 357kts
10-Feb-18 19:02 43.132748 -90.961250 265 34208ft 357kts
10-Feb-18 19:03 43.131901 -91.096836 265 34205ft 357kts
10-Feb-18 19:04 43.130882 -91.232615 265 34202ft 357kts
10-Feb-18 19:05 43.129704 -91.368417 265 34199ft 357kts
10-Feb-18 19:06 43.128387 -91.504569 264 34144ft 360kts
10-Feb-18 19:07 43.126862 -91.640303 264 34138ft 357kts
10-Feb-18 19:08 43.125207 -91.775463 264 34157ft 357kts
10-Feb-18 19:09 43.123394 -91.910795 264 34154ft 357kts
10-Feb-18 19:10 43.121417 -92.046414 264 34151ft 357kts
10-Feb-18 19:11 43.119278 -92.182273 264 34148ft 357kts
10-Feb-18 19:12 43.116976 -92.318017 264 34172ft 358kts
10-Feb-18 19:13 43.114513 -92.453903 264 34169ft 357kts
10-Feb-18 19:14 43.111881 -92.589939 264 34167ft 358kts
10-Feb-18 19:15 43.109102 -92.725437 263 34185ft 357kts
10-Feb-18 19:16 43.106167 -92.860846 263 34182ft 357kts
10-Feb-18 19:17 43.103061 -92.996708 263 34179ft 357kts
10-Feb-18 19:18 43.099811 -93.131902 263 34176ft 357kts
10-Feb-18 19:19 43.096383 -93.267779 263 34173ft 357kts
10-Feb-18 19:20 43.088073 -93.402351 259 34170ft 355kts
10-Feb-18 19:21 43.075669 -93.535117 259 34167ft 355kts
10-Feb-18 19:22 43.063049 -93.668497 259 34156ft 355kts
10-Feb-18 19:23 43.050280 -93.801792 259 34156ft 355kts
10-Feb-18 19:24 43.037309 -93.935522 259 34153ft 354kts
10-Feb-18 19:25 43.024229 -94.068771 259 34150ft 354kts
10-Feb-18 19:26 43.011026 -94.201630 259 34147ft 354kts
10-Feb-18 19:27 42.997646 -94.334632 259 34144ft 354kts
10-Feb-18 19:28 42.984137 -94.467390 259 34141ft 354kts
10-Feb-18 19:29 42.970453 -94.600280 259 34138ft 354kts
10-Feb-18 19:30 42.956957 -94.729720 259 34157ft 354kts
10-Feb-18 19:31 42.942971 -94.862400 259 34180ft 354kts
10-Feb-18 19:32 42.928828 -94.995042 259 34178ft 354kts
10-Feb-18 19:33 42.914585 -95.127104 259 34175ft 353kts
10-Feb-18 19:34 42.900110 -95.259873 259 34172ft 353kts
10-Feb-18 19:35 42.885567 -95.391729 260 34178ft 353kts
10-Feb-18 19:36 42.870841 -95.523935 260 34175ft 353kts
10-Feb-18 19:37 42.858279 -95.661019 259 34160ft 375kts
10-Feb-18 19:38 42.845861 -95.802163 259 34217ft 375kts
10-Feb-18 19:39 42.841443 -95.944359 267 34260ft 380kts
10-Feb-18 19:40 42.838835 -96.087135 251 34294ft 374kts
10-Feb-18 19:41 42.803693 -96.219742 253 34315ft 375kts
10-Feb-18 19:42 42.781170 -96.362767 257 34318ft 400kts
10-Feb-18 19:43 42.762290 -96.506617 257 34154ft 358kts
10-Feb-18 19:44 42.746919 -96.628196 257 34055ft 297kts
10-Feb-18 19:45 42.733593 -96.733742 256 34074ft 293kts
10-Feb-18 19:46 42.719019 -96.848933 257 34154ft 327kts
10-Feb-18 19:47 42.702734 -96.976826 257 34214ft 361kts
10-Feb-18 19:48 42.685193 -97.113485 257 34184ft 368kts
10-Feb-18 19:49 42.667653 -97.248689 257 34176ft 368kts
10-Feb-18 19:50 42.649546 -97.386931 257 34151ft 373kts
10-Feb-18 19:51 42.631121 -97.526115 257 34115ft 375kts
10-Feb-18 19:52 42.612579 -97.664852 256 34145ft 378kts
10-Feb-18 19:53 42.593774 -97.804290 256 34187ft 375kts
10-Feb-18 19:54 42.574824 -97.943423 256 34185ft 376kts
10-Feb-18 19:55 42.555678 -98.082678 256 34130ft 376kts
10-Feb-18 19:56 42.536406 -98.221533 256 34126ft 376kts
10-Feb-18 19:57 42.516938 -98.360510 256 34124ft 376kts
10-Feb-18 19:58 42.497304 -98.499394 256 34122ft 376kts
10-Feb-18 19:59 42.477516 -98.638089 256 34119ft 376kts
10-Feb-18 20:00 42.435468 -98.763370 240 34132ft 374kts
10-Feb-18 20:01 42.382214 -98.884284 240 34130ft 374kts
10-Feb-18 20:02 42.328619 -99.004065 240 34128ft 374kts
10-Feb-18 20:03 42.274713 -99.123774 240 34125ft 374kts
10-Feb-18 20:04 42.220515 -99.243592 240 34123ft 373kts
10-Feb-18 20:05 42.165623 -99.364446 240 34122ft 386kts
10-Feb-18 20:06 42.109820 -99.486796 240 34066ft 385kts
10-Feb-18 20:07 42.053631 -99.609503 240 34064ft 385kts
10-Feb-18 20:08 41.997484 -99.731598 240 34076ft 385kts
10-Feb-18 20:09 41.941134 -99.853650 240 34075ft 385kts
10-Feb-18 20:10 41.884821 -99.975131 240 34078ft 386kts
10-Feb-18 20:11 41.827969 -100.097270 240 34076ft 386kts
10-Feb-18 20:11 41.780771 -100.198303 240 34074ft 386kts
10-Feb-18 20:13 41.714294 -100.340033 240 34072ft 385kts
10-Feb-18 20:13 41.666855 -100.440765 240 34070ft 385kts
10-Feb-18 20:15 41.600248 -100.581639 240 34067ft 385kts
10-Feb-18 20:15 41.552565 -100.682079 239 34081ft 386kts
10-Feb-18 20:17 41.500617 -100.823883 248 34078ft 383kts
10-Feb-18 20:18 41.460419 -100.955543 248 34076ft 383kts
10-Feb-18 20:18 41.427189 -101.064040 249 34070ft 365kts
10-Feb-18 20:19 41.388841 -101.189365 249 34090ft 367kts
10-Feb-18 20:20 41.350296 -101.315513 249 34096ft 368kts
10-Feb-18 20:21 41.311722 -101.441141 249 34093ft 368kts
10-Feb-18 20:22 41.272866 -101.567052 250 34087ft 372kts
10-Feb-18 20:23 41.233761 -101.693230 248 34107ft 369kts
10-Feb-18 20:24 41.194635 -101.819010 249 34104ft 370kts
10-Feb-18 20:25 41.156591 -101.943539 249 33119ft 352kts
10-Feb-18 20:26 41.121166 -102.058865 248 31591ft 327kts
10-Feb-18 20:27 41.087612 -102.167622 248 30058ft 319kts
10-Feb-18 20:28 41.053532 -102.277327 248 28521ft 327kts
10-Feb-18 20:29 41.016830 -102.393107 247 26991ft 363kts
10-Feb-18 20:30 40.977832 -102.515571 247 25593ft 361kts
10-Feb-18 20:31 40.938125 -102.639722 247 24535ft 381kts
10-Feb-18 20:32 40.897378 -102.766507 246 23552ft 385kts
10-Feb-18 20:33 40.855156 -102.897296 247 22584ft 390kts
10-Feb-18 20:34 40.812130 -103.029943 247 21764ft 395kts
10-Feb-18 20:36 40.770262 -103.158323 247 21036ft 354kts
10-Feb-18 20:37 40.733888 -103.269348 248 20293ft 308kts
10-Feb-18 20:38 40.699853 -103.372932 248 19584ft 320kts
10-Feb-18 20:39 40.664476 -103.480089 248 19043ft 319kts
10-Feb-18 20:40 40.628994 -103.587171 248 18759ft 319kts
10-Feb-18 20:41 40.587444 -103.688795 230 18264ft 325kts
10-Feb-18 20:42 40.524917 -103.774986 230 17777ft 329kts
10-Feb-18 20:43 40.465780 -103.855674 231 17257ft 288kts
10-Feb-18 20:44 40.410067 -103.931644 231 17012ft 289kts
10-Feb-18 20:45 40.354212 -104.007530 231 17012ft 289kts
10-Feb-18 20:46 40.302416 -104.086267 253 17016ft 272kts
10-Feb-18 20:47 40.332948 -104.155417 326 16628ft 243kts
10-Feb-18 20:48 40.356528 -104.224495 261 15751ft 235kts
10-Feb-18 20:49 40.328308 -104.306065 277 14080ft 245kts
10-Feb-18 20:50 40.342334 -104.386613 280 13851ft 229kts
10-Feb-18 20:51 40.346709 -104.469229 277 12790ft 225kts
10-Feb-18 20:52 40.344059 -104.553016 239 12042ft 240kts
10-Feb-18 20:53 40.294017 -104.611869 222 11995ft 244kts
10-Feb-18 20:54 40.245880 -104.671784 237 10695ft 236kts
10-Feb-18 20:55 40.191601 -104.692639 173 10036ft 208kts
10-Feb-18 20:56 40.135007 -104.686249 179 9984ft 199kts
10-Feb-18 20:57 40.084667 -104.685011 181 9142ft 174kts
10-Feb-18 20:58 40.037181 -104.685142 182 8200ft 155kts
10-Feb-18 20:59 39.995721 -104.685588 182 7391ft 148kts
10-Feb-18 21:00 39.954917 -104.686079 182 6598ft 146kts
10-Feb-18 21:01 39.914745 -104.686622 184 5823ft 143kts
10-Feb-18 21:02 39.881627 -104.686865 181 5446ft 57kts
10-Feb-18 21:03 39.875766 -104.685152 151 5445ft 2kts
10-Feb-18 21:04 39.873696 -104.684827 180 5445ft 12kts
10-Feb-18 21:05 39.868283 -104.684873 179 5445ft 21kts
10-Feb-18 21:06 39.864260 -104.684170 98 5445ft 9kts

Navigation Log

Ident Type
Flight plan parsing failed, navigation log unavailable